Time;durP1;ratioP1;P1;durP2;ratioP2;P2;SDS_P1;SDS_P2;PMS_P1;PMS_P2;Temp;Humidity;BMP_temperature;BMP_pressure;BME280_temperature;BME280_humidity;BME280_pressure;Samples;Min_cycle;Max_cycle;Signal;HPM_P1;HPM_P2
2022/08/20 00:01:00;;;;;;;16.80;13.90;;;16.30;99.90;;;;;;5023989;28;20481;-61
2022/08/20 00:03:30;;;;;;;19.83;15.40;;;16.30;99.90;;;;;;5027129;28;20924;-61
2022/08/20 00:06:03;;;;;;;19.07;14.17;;;16.20;99.90;;;;;;5026392;28;20200;-59
2022/08/20 00:08:30;;;;;;;21.90;16.20;;;16.20;99.90;;;;;;5026959;28;21088;-60
2022/08/20 00:10:57;;;;;;;21.50;16.20;;;16.20;99.90;;;;;;5025191;28;20890;-60
2022/08/20 00:13:27;;;;;;;19.83;15.87;;;16.20;99.90;;;;;;5028403;28;20426;-61
2022/08/20 00:15:53;;;;;;;21.70;16.07;;;16.10;99.90;;;;;;5026421;28;20496;-60
2022/08/20 00:18:20;;;;;;;22.93;16.93;;;16.10;99.90;;;;;;5016337;28;20458;-61
2022/08/20 00:20:49;;;;;;;23.17;17.00;;;16.10;99.90;;;;;;5026008;28;20174;-60
2022/08/20 00:23:16;;;;;;;22.00;16.10;;;16.00;99.90;;;;;;5026121;28;20500;-61
2022/08/20 00:25:42;;;;;;;20.60;16.13;;;16.00;99.90;;;;;;5023763;28;20442;-61
2022/08/20 00:28:09;;;;;;;21.80;16.73;;;15.90;99.90;;;;;;5027778;28;20438;-61
2022/08/20 00:30:36;;;;;;;25.23;15.87;;;15.90;99.90;;;;;;5025939;28;20438;-60
2022/08/20 00:33:08;;;;;;;22.73;17.20;;;15.90;99.90;;;;;;5028345;28;20434;-60
2022/08/20 00:35:38;;;;;;;22.80;16.90;;;15.80;99.90;;;;;;5025909;28;20474;-60
2022/08/20 00:38:05;;;;;;;21.33;15.70;;;15.80;99.90;;;;;;5027262;28;20423;-61
2022/08/20 00:40:38;;;;;;;24.37;18.33;;;15.80;99.90;;;;;;5027415;28;20504;-61
2022/08/20 00:43:06;;;;;;;22.10;16.37;;;15.80;99.90;;;;;;5031368;28;20484;-60
2022/08/20 00:45:33;;;;;;;23.63;16.67;;;15.70;99.90;;;;;;5029833;28;20553;-61
2022/08/20 00:47:59;;;;;;;23.60;16.30;;;15.70;99.90;;;;;;5021668;28;20437;-62
2022/08/20 00:50:32;;;;;;;25.57;15.50;;;15.70;99.90;;;;;;5030478;28;20438;-61
2022/08/20 00:52:59;;;;;;;22.50;16.80;;;15.70;99.90;;;;;;5014406;28;20257;-61
2022/08/20 00:55:25;;;;;;;25.00;17.73;;;15.70;99.90;;;;;;5027650;28;20465;-60
2022/08/20 00:57:55;;;;;;;25.73;17.73;;;15.60;99.90;;;;;;5030422;28;20480;-61
2022/08/20 01:00:32;;;;;;;25.03;17.33;;;15.60;99.90;;;;;;5031757;28;20399;-61
2022/08/20 01:02:59;;;;;;;22.80;15.90;;;15.60;99.90;;;;;;5022753;28;20449;-60
2022/08/20 01:05:25;;;;;;;21.70;15.03;;;15.50;99.90;;;;;;5028526;28;20434;-61
2022/08/20 01:07:52;;;;;;;24.03;15.40;;;15.50;99.90;;;;;;5030933;28;20620;-62
2022/08/20 01:10:22;;;;;;;19.97;15.67;;;15.50;99.90;;;;;;5031538;28;20426;-61
2022/08/20 01:12:50;;;;;;;18.30;14.67;;;15.50;99.90;;;;;;5029801;28;20429;-61
2022/08/20 01:15:20;;;;;;;21.00;14.97;;;15.40;99.90;;;;;;5029663;28;20477;-59
2022/08/20 01:17:48;;;;;;;21.20;14.47;;;15.40;99.90;;;;;;5029201;28;20456;-61
2022/08/20 01:20:18;;;;;;;20.07;16.07;;;15.40;99.90;;;;;;5029183;28;20439;-59
2022/08/20 01:25:54;;;;;;;21.60;15.27;;;15.30;99.90;;;;;;5029144;28;20429;-61
2022/08/20 01:28:24;;;;;;;28.30;17.20;;;15.30;99.90;;;;;;5028701;28;20445;-61
2022/08/20 01:30:51;;;;;;;24.60;16.17;;;15.30;99.90;;;;;;5027805;28;20453;-62
2022/08/20 01:33:18;;;;;;;18.83;15.53;;;15.30;99.90;;;;;;5027814;28;20997;-61
2022/08/20 01:35:44;;;;;;;27.80;16.50;;;15.30;99.90;;;;;;5030690;28;20461;-59
2022/08/20 01:38:11;;;;;;;23.73;16.27;;;15.20;99.90;;;;;;5029480;28;20914;-61
2022/08/20 01:40:43;;;;;;;19.80;15.20;;;15.20;99.90;;;;;;5031304;28;20221;-61
2022/08/20 01:43:09;;;;;;;22.30;15.63;;;15.20;99.90;;;;;;5030269;28;20434;-59
2022/08/20 01:45:35;;;;;;;18.13;14.30;;;15.20;99.90;;;;;;5029143;28;20446;-60
2022/08/20 01:48:02;;;;;;;20.77;14.83;;;15.20;99.90;;;;;;5026685;28;20434;-61
2022/08/20 01:50:31;;;;;;;19.80;14.43;;;15.20;99.90;;;;;;5025386;28;20439;-61
2022/08/20 01:53:05;;;;;;;23.70;15.80;;;15.10;99.90;;;;;;5028345;28;20426;-61
2022/08/20 01:55:31;;;;;;;18.90;14.43;;;15.10;99.90;;;;;;5028966;28;20458;-61
2022/08/20 01:57:58;;;;;;;20.13;14.57;;;15.10;99.90;;;;;;5028756;28;21020;-62
2022/08/20 02:00:24;;;;;;;19.23;14.80;;;15.10;99.90;;;;;;5011690;28;20909;-61
2022/08/20 02:02:50;;;;;;;19.67;14.80;;;15.10;99.90;;;;;;5020538;28;20439;-60
2022/08/20 02:05:16;;;;;;;20.10;14.70;;;15.10;99.90;;;;;;5026124;28;20457;-61
2022/08/20 02:07:42;;;;;;;22.63;13.50;;;15.10;99.90;;;;;;5020411;28;20589;-61
2022/08/20 02:10:11;;;;;;;20.43;14.20;;;15.10;99.90;;;;;;5024883;28;20958;-62
2022/08/20 02:12:38;;;;;;;20.60;14.43;;;15.00;99.90;;;;;;5026848;28;20788;-61
2022/08/20 02:15:07;;;;;;;17.00;13.67;;;15.00;99.90;;;;;;5012923;28;20450;-60
2022/08/20 02:17:33;;;;;;;19.40;14.33;;;15.00;99.90;;;;;;5022834;28;20441;-61
2022/08/20 02:20:13;;;;;;;17.60;14.27;;;15.00;99.90;;;;;;5028873;28;20438;-60
2022/08/20 02:22:46;;;;;;;18.20;14.17;;;15.00;99.90;;;;;;5023721;28;20438;-61
2022/08/20 02:25:14;;;;;;;16.70;13.57;;;15.00;99.90;;;;;;5029211;28;20461;-60
2022/08/20 02:27:42;;;;;;;17.97;13.50;;;15.00;99.90;;;;;;5031097;28;20402;-60
2022/08/20 02:30:14;;;;;;;16.47;13.37;;;15.00;99.90;;;;;;5029247;28;20446;-62
2022/08/20 02:32:39;;;;;;;19.80;13.07;;;14.90;99.90;;;;;;5028741;28;20478;-62
2022/08/20 02:35:09;;;;;;;18.07;14.03;;;14.90;99.90;;;;;;5028770;28;20462;-61
2022/08/20 02:37:36;;;;;;;16.10;12.77;;;14.90;99.90;;;;;;5028548;28;20198;-61
2022/08/20 02:40:06;;;;;;;16.57;13.27;;;14.90;99.90;;;;;;5030389;28;20430;-60
2022/08/20 02:42:33;;;;;;;17.73;13.10;;;14.80;99.90;;;;;;5029548;28;20454;-60
2022/08/20 02:44:59;;;;;;;18.70;13.27;;;14.80;99.90;;;;;;5029732;28;20511;-61
2022/08/20 02:47:26;;;;;;;16.77;13.30;;;14.80;99.90;;;;;;5017419;28;20573;-61
2022/08/20 02:49:53;;;;;;;16.80;13.60;;;14.80;99.90;;;;;;5028101;28;20172;-61
2022/08/20 02:52:20;;;;;;;20.93;12.93;;;14.80;99.90;;;;;;5028657;28;20427;-61
2022/08/20 02:54:49;;;;;;;17.73;13.53;;;14.80;99.90;;;;;;5029783;28;20454;-61
2022/08/20 02:57:19;;;;;;;17.60;13.97;;;14.70;99.90;;;;;;5026929;28;20592;-60
2022/08/20 02:59:45;;;;;;;17.03;13.40;;;14.70;99.90;;;;;;5030718;28;20421;-61
2022/08/20 03:02:11;;;;;;;19.47;13.17;;;14.70;99.90;;;;;;5019646;28;20518;-60
2022/08/20 03:04:37;;;;;;;32.13;13.97;;;14.70;99.90;;;;;;5026819;28;20447;-62
2022/08/20 03:07:04;;;;;;;35.70;15.10;;;14.70;99.90;;;;;;5027410;28;20488;-61
2022/08/20 03:09:31;;;;;;;46.17;14.80;;;14.70;99.90;;;;;;5030536;28;20172;-61
2022/08/20 03:11:56;;;;;;;56.80;17.03;;;14.70;99.90;;;;;;5028422;28;20438;-61
2022/08/20 03:14:22;;;;;;;21.80;15.10;;;14.70;99.90;;;;;;5028591;28;20973;-61
2022/08/20 03:16:49;;;;;;;30.57;17.00;;;14.70;99.90;;;;;;5026469;28;20184;-61
2022/08/20 03:19:14;;;;;;;20.63;15.10;;;14.70;99.90;;;;;;5029963;28;20414;-60
2022/08/20 03:21:40;;;;;;;22.77;15.47;;;14.70;99.90;;;;;;5027297;28;20439;-61
2022/08/20 03:24:07;;;;;;;22.93;14.90;;;14.80;99.90;;;;;;5029758;28;20172;-60
2022/08/20 03:26:32;;;;;;;22.10;14.90;;;14.80;99.90;;;;;;5024107;28;20459;-61
2022/08/20 03:28:58;;;;;;;22.93;15.70;;;14.80;99.90;;;;;;5028171;28;20411;-62
2022/08/20 03:31:23;;;;;;;19.43;13.13;;;14.80;99.90;;;;;;5025443;28;20272;-62
2022/08/20 03:33:49;;;;;;;17.57;12.93;;;14.80;99.90;;;;;;5028445;28;20593;-62
2022/08/20 03:36:15;;;;;;;16.27;12.90;;;14.80;99.90;;;;;;5025139;28;20737;-60
2022/08/20 03:38:40;;;;;;;15.00;12.30;;;14.80;99.90;;;;;;5028125;28;20760;-60
2022/08/20 03:41:06;;;;;;;28.00;15.07;;;14.80;99.90;;;;;;5027755;28;20568;-60
2022/08/20 03:43:34;;;;;;;17.37;13.30;;;14.80;99.90;;;;;;5028459;28;20168;-61
2022/08/20 03:46:00;;;;;;;17.17;13.23;;;14.70;99.90;;;;;;5026168;28;20203;-61
2022/08/20 03:48:25;;;;;;;18.83;13.57;;;14.70;99.90;;;;;;5028065;28;20445;-61
2022/08/20 03:50:51;;;;;;;20.47;14.87;;;14.70;99.90;;;;;;5026403;28;20971;-61
2022/08/20 03:53:18;;;;;;;19.23;13.47;;;14.70;99.90;;;;;;5029211;28;20376;-61
2022/08/20 03:55:46;;;;;;;16.63;13.03;;;14.70;99.90;;;;;;5027544;28;20469;-60
2022/08/20 03:58:13;;;;;;;21.57;13.73;;;14.70;99.90;;;;;;5028210;28;20924;-60
2022/08/20 04:00:43;;;;;;;16.47;12.60;;;14.70;99.90;;;;;;5026986;28;20963;-60
2022/08/20 04:03:10;;;;;;;18.80;13.83;;;14.70;99.90;;;;;;5020447;28;20837;-60
2022/08/20 04:05:39;;;;;;;17.40;12.57;;;14.70;99.90;;;;;;5026652;28;20489;-59
2022/08/20 04:08:07;;;;;;;16.83;12.73;;;14.70;99.90;;;;;;5022375;28;20481;-62
2022/08/20 04:10:34;;;;;;;16.77;12.53;;;14.70;99.90;;;;;;5027149;28;20453;-61
2022/08/20 04:12:59;;;;;;;15.90;13.30;;;14.70;99.90;;;;;;5029942;28;20405;-61
2022/08/20 04:15:26;;;;;;;17.57;13.13;;;14.60;99.90;;;;;;5025706;28;20462;-61
2022/08/20 04:17:52;;;;;;;18.30;13.17;;;14.70;99.90;;;;;;5020626;28;20184;-61
2022/08/20 04:20:24;;;;;;;18.17;12.13;;;14.70;99.90;;;;;;5013266;28;21710;-60
2022/08/20 04:22:55;;;;;;;55.13;13.73;;;14.70;99.90;;;;;;5022432;28;20550;-60
2022/08/20 04:25:21;;;;;;;33.53;13.03;;;14.60;99.90;;;;;;5027171;28;20450;-61
2022/08/20 04:27:49;;;;;;;17.10;12.00;;;14.60;99.90;;;;;;5020366;28;20486;-61
2022/08/20 04:30:18;;;;;;;32.87;12.90;;;14.60;99.90;;;;;;5021622;28;20177;-61
2022/08/20 04:32:44;;;;;;;21.63;11.30;;;14.60;99.90;;;;;;5024877;28;20452;-61
2022/08/20 04:35:13;;;;;;;20.93;11.83;;;14.50;99.90;;;;;;5028501;28;20454;-62
2022/08/20 04:37:40;;;;;;;24.53;11.10;;;14.50;99.90;;;;;;5027464;28;20669;-61
2022/08/20 04:42:55;;;;;;;35.73;11.23;;;14.50;99.90;;;;;;5028052;28;20436;-62
2022/08/20 04:45:21;;;;;;;27.00;11.20;;;14.50;99.90;;;;;;5025940;28;20449;-61
2022/08/20 04:47:48;;;;;;;46.07;12.70;;;14.50;99.90;;;;;;5024222;28;20422;-61
2022/08/20 04:50:14;;;;;;;63.87;13.30;;;14.50;99.90;;;;;;5026662;28;20210;-62
2022/08/20 04:52:40;;;;;;;76.07;12.53;;;14.50;99.90;;;;;;5027134;28;20433;-62
2022/08/20 04:55:06;;;;;;;60.73;12.27;;;14.50;99.90;;;;;;5022066;28;20455;-61
2022/08/20 04:57:35;;;;;;;85.10;13.43;;;14.50;99.90;;;;;;5017063;28;20173;-61
2022/08/20 05:00:01;;;;;;;101.40;13.00;;;14.50;99.90;;;;;;5027426;28;20434;-61
2022/08/20 05:02:26;;;;;;;32.53;11.40;;;14.50;99.90;;;;;;5020528;28;20427;-62
2022/08/20 05:04:52;;;;;;;27.00;12.13;;;14.50;99.90;;;;;;5025600;28;20194;-61
2022/08/20 05:07:18;;;;;;;14.40;10.70;;;14.50;99.90;;;;;;5025246;28;20172;-60
2022/08/20 05:09:43;;;;;;;13.97;10.13;;;14.60;99.90;;;;;;5027255;28;20619;-62
2022/08/20 05:12:09;;;;;;;27.60;10.80;;;14.60;99.90;;;;;;5027943;28;20179;-61
2022/08/20 05:14:35;;;;;;;46.33;11.03;;;14.60;99.90;;;;;;5026073;28;20219;-61
2022/08/20 05:17:05;;;;;;;50.63;11.23;;;14.60;99.90;;;;;;5026416;28;20164;-59
2022/08/20 05:19:32;;;;;;;21.27;9.20;;;14.60;99.90;;;;;;5022020;28;20543;-59
2022/08/20 05:21:58;;;;;;;23.33;10.30;;;14.60;99.90;;;;;;5019685;28;20431;-60
2022/08/20 05:24:24;;;;;;;10.30;8.83;;;14.60;99.90;;;;;;5028376;28;20464;-61
2022/08/20 05:26:49;;;;;;;28.70;9.63;;;14.60;99.90;;;;;;5023681;28;20187;-61
2022/08/20 05:29:16;;;;;;;59.40;11.30;;;14.70;99.90;;;;;;5031473;28;20414;-61
2022/08/20 05:31:42;;;;;;;53.57;10.57;;;14.60;99.90;;;;;;5026006;28;20175;-62
2022/08/20 05:34:10;;;;;;;36.23;10.70;;;14.70;99.90;;;;;;5030563;28;20442;-62
2022/08/20 05:36:41;;;;;;;35.00;10.67;;;14.70;99.90;;;;;;5027902;28;20450;-62
2022/08/20 05:39:08;;;;;;;33.40;10.33;;;14.70;99.90;;;;;;5026474;28;20390;-60
2022/08/20 05:41:33;;;;;;;21.43;10.60;;;14.70;99.90;;;;;;5030573;28;20430;-61
2022/08/20 05:44:00;;;;;;;25.00;10.20;;;14.70;99.90;;;;;;5031034;28;20414;-60
2022/08/20 05:46:26;;;;;;;16.30;10.07;;;14.70;99.90;;;;;;5025175;28;20194;-61
2022/08/20 05:48:51;;;;;;;13.97;11.10;;;14.70;99.90;;;;;;5024827;28;20422;-61
2022/08/20 05:51:17;;;;;;;65.97;11.47;;;14.80;99.90;;;;;;5030336;28;20845;-61
2022/08/20 05:53:43;;;;;;;15.93;12.27;;;14.80;99.90;;;;;;5031146;28;20233;-61
2022/08/20 05:56:10;;;;;;;54.83;10.60;;;14.90;99.90;;;;;;5030919;28;20191;-61
2022/08/20 05:58:36;;;;;;;79.10;11.30;;;14.90;99.90;;;;;;5029907;28;20238;-60
2022/08/20 06:01:02;;;;;;;32.57;10.93;;;14.90;99.90;;;;;;5029971;28;20438;-61
2022/08/20 06:06:12;;;;;;;20.77;10.03;;;14.90;99.90;;;;;;5025707;28;21174;-60
2022/08/20 06:08:38;;;;;;;20.17;10.13;;;14.90;99.90;;;;;;5023958;28;20439;-61
2022/08/20 06:11:04;;;;;;;24.73;9.90;;;14.90;99.90;;;;;;5030367;28;20176;-61
2022/08/20 06:13:30;;;;;;;19.40;9.97;;;15.00;99.90;;;;;;5020352;28;20751;-62
2022/08/20 06:15:56;;;;;;;11.70;10.30;;;15.00;99.90;;;;;;5024784;28;20469;-61
2022/08/20 06:18:22;;;;;;;12.50;10.30;;;15.00;99.90;;;;;;5029246;28;20641;-60
2022/08/20 06:20:49;;;;;;;12.23;10.00;;;15.10;99.90;;;;;;5030880;28;20469;-61
2022/08/20 06:23:15;;;;;;;12.53;9.77;;;15.10;99.90;;;;;;5031450;28;20476;-60
2022/08/20 06:25:41;;;;;;;11.30;9.27;;;15.20;99.90;;;;;;5029024;28;20426;-61
2022/08/20 06:28:08;;;;;;;12.20;9.43;;;15.30;99.90;;;;;;5021845;28;20438;-60
2022/08/20 06:30:34;;;;;;;11.00;8.93;;;15.40;99.90;;;;;;5028524;28;20435;-60
2022/08/20 06:33:00;;;;;;;11.10;9.30;;;15.60;99.90;;;;;;5026495;28;20445;-61
2022/08/20 06:35:26;;;;;;;11.20;8.90;;;15.70;99.90;;;;;;5024476;28;20470;-61
2022/08/20 06:37:52;;;;;;;16.33;9.07;;;15.80;99.90;;;;;;5019113;28;20188;-61
2022/08/20 06:40:22;;;;;;;13.73;9.57;;;15.90;99.90;;;;;;5025734;28;20273;-61
2022/08/20 06:42:48;;;;;;;7.77;6.80;;;16.10;99.90;;;;;;5022219;28;20207;-61
2022/08/20 06:45:17;;;;;;;7.50;6.53;;;16.20;99.90;;;;;;5021449;28;20438;-61
2022/08/20 06:47:45;;;;;;;6.97;5.93;;;16.20;99.90;;;;;;5013908;28;20437;-60
2022/08/20 06:50:14;;;;;;;8.80;6.57;;;16.30;99.90;;;;;;5026110;28;20410;-60
2022/08/20 06:52:40;;;;;;;7.43;6.60;;;16.50;99.90;;;;;;5026995;28;20442;-61
2022/08/20 06:55:08;;;;;;;11.40;6.50;;;16.50;99.90;;;;;;5014356;28;20454;-61
2022/08/20 06:57:35;;;;;;;8.33;6.20;;;16.60;99.90;;;;;;5024775;28;20436;-62
2022/08/20 07:00:05;;;;;;;8.97;6.40;;;16.60;99.90;;;;;;5024184;28;20433;-61
2022/08/20 07:02:32;;;;;;;7.80;6.30;;;16.70;99.90;;;;;;5021221;28;20422;-62
2022/08/20 07:04:58;;;;;;;11.50;7.20;;;16.70;99.90;;;;;;5029542;28;20477;-64
2022/08/20 07:07:23;;;;;;;10.83;8.17;;;16.70;99.90;;;;;;5030998;28;20924;-62
2022/08/20 07:09:49;;;;;;;12.37;9.40;;;16.70;99.90;;;;;;5027874;28;20266;-62
2022/08/20 07:12:16;;;;;;;10.10;8.27;;;16.60;99.90;;;;;;5029975;28;20180;-61
2022/08/20 07:14:41;;;;;;;11.77;9.50;;;16.60;99.90;;;;;;5029184;28;20212;-60
2022/08/20 07:17:11;;;;;;;10.60;9.23;;;16.60;99.90;;;;;;5028509;28;20418;-62
2022/08/20 07:19:37;;;;;;;9.00;8.10;;;16.50;99.90;;;;;;5022756;28;20704;-62
2022/08/20 07:22:02;;;;;;;10.13;8.43;;;16.50;99.90;;;;;;5023924;28;20445;-62
2022/08/20 07:24:28;;;;;;;10.27;8.67;;;16.50;99.90;;;;;;5027043;28;20171;-61
2022/08/20 07:26:54;;;;;;;9.63;8.10;;;16.40;99.90;;;;;;5018705;28;20183;-63
2022/08/20 07:29:19;;;;;;;9.67;8.23;;;16.40;99.90;;;;;;5016901;28;20177;-62
2022/08/20 07:34:30;;;;;;;9.73;8.37;;;16.50;99.90;;;;;;5014461;28;20206;-61
2022/08/20 07:36:59;;;;;;;10.87;8.80;;;16.60;99.90;;;;;;5015108;28;20530;-60
2022/08/20 07:39:25;;;;;;;12.50;8.50;;;16.70;99.90;;;;;;5011699;28;20419;-59
2022/08/20 07:42:01;;;;;;;9.03;7.80;;;16.80;99.90;;;;;;5012154;28;20496;-55
2022/08/20 07:44:29;;;;;;;8.93;7.70;;;16.90;99.90;;;;;;5020122;28;20202;-55
2022/08/20 07:46:55;;;;;;;9.40;7.80;;;17.00;99.90;;;;;;5023116;28;20480;-55
2022/08/20 07:49:20;;;;;;;8.07;6.77;;;17.10;99.90;;;;;;5025187;28;20842;-56
2022/08/20 07:51:46;;;;;;;7.70;6.90;;;17.20;99.90;;;;;;5020965;28;20460;-56
2022/08/20 07:54:11;;;;;;;9.90;7.23;;;17.20;99.90;;;;;;5028400;28;20286;-57
2022/08/20 07:56:37;;;;;;;8.77;6.80;;;17.20;99.90;;;;;;5027454;28;20218;-55
2022/08/20 07:59:03;;;;;;;7.37;6.37;;;17.30;99.90;;;;;;5020424;28;20164;-55
2022/08/20 08:01:30;;;;;;;7.43;6.27;;;17.30;99.90;;;;;;5027709;28;20754;-56
2022/08/20 08:03:58;;;;;;;8.33;6.20;;;17.50;99.90;;;;;;5027105;28;20186;-56
2022/08/20 08:06:26;;;;;;;7.93;5.70;;;17.70;99.90;;;;;;5028963;28;20425;-56
2022/08/20 08:08:52;;;;;;;11.03;5.80;;;17.90;99.90;;;;;;5028704;28;20418;-55
2022/08/20 08:11:18;;;;;;;6.40;5.27;;;18.10;99.90;;;;;;5027578;28;20502;-56
2022/08/20 08:13:46;;;;;;;7.60;5.40;;;18.30;99.90;;;;;;5014508;28;20513;-56
2022/08/20 08:16:12;;;;;;;5.47;4.97;;;18.30;99.90;;;;;;5024818;28;20966;-55
2022/08/20 08:18:43;;;;;;;6.00;5.43;;;18.40;99.90;;;;;;5020303;28;20430;-56
2022/08/20 08:21:11;;;;;;;6.10;5.23;;;18.50;99.90;;;;;;5023291;28;20480;-56
2022/08/20 08:23:43;;;;;;;5.57;4.97;;;18.60;99.90;;;;;;5027782;28;20506;-55
2022/08/20 08:26:13;;;;;;;7.87;5.60;;;18.60;99.90;;;;;;5023039;28;20446;-55
2022/08/20 08:28:40;;;;;;;8.80;5.07;;;18.70;99.90;;;;;;5013685;28;20523;-54
2022/08/20 08:31:06;;;;;;;6.93;5.80;;;18.70;99.90;;;;;;5026027;28;20434;-56
2022/08/20 08:33:32;;;;;;;5.77;5.20;;;18.80;99.90;;;;;;5023390;28;20430;-56
2022/08/20 08:36:10;;;;;;;5.10;4.60;;;18.80;99.90;;;;;;5026185;28;20512;-56
2022/08/20 08:38:37;;;;;;;8.60;5.20;;;18.80;99.90;;;;;;5010857;28;20229;-56
2022/08/20 08:41:31;;;;;;;5.03;4.53;;;18.80;99.90;;;;;;5019470;28;20633;-55
2022/08/20 08:44:08;;;;;;;5.63;4.33;;;18.80;99.90;;;;;;5020232;28;20457;-56
2022/08/20 08:46:39;;;;;;;5.70;4.77;;;18.70;99.90;;;;;;5013594;28;20453;-56
2022/08/20 08:49:06;;;;;;;5.90;5.30;;;18.70;99.90;;;;;;5015293;28;20426;-56
2022/08/20 08:51:39;;;;;;;9.60;5.20;;;18.70;99.90;;;;;;5022201;28;20419;-56
2022/08/20 08:54:07;;;;;;;6.87;5.03;;;18.80;99.90;;;;;;5008207;28;20435;-55
2022/08/20 08:56:33;;;;;;;5.60;5.10;;;18.80;99.90;;;;;;5022724;28;20474;-55
2022/08/20 08:59:03;;;;;;;6.20;4.50;;;18.90;99.90;;;;;;5022012;28;20521;-56
2022/08/20 09:01:32;;;;;;;5.03;4.50;;;18.90;99.90;;;;;;5027140;28;20895;-55
2022/08/20 09:04:00;;;;;;;6.17;4.90;;;18.90;99.90;;;;;;5014394;28;20438;-56
2022/08/20 09:06:27;;;;;;;5.60;4.40;;;18.90;99.90;;;;;;5026821;28;20441;-56
2022/08/20 09:08:56;;;;;;;7.80;4.67;;;18.80;99.90;;;;;;5030503;28;20410;-55
2022/08/20 09:11:23;;;;;;;5.30;4.23;;;18.80;99.90;;;;;;5018674;28;20434;-56
2022/08/20 09:13:50;;;;;;;4.53;4.13;;;18.70;99.90;;;;;;5026401;28;20449;-56
2022/08/20 09:16:16;;;;;;;6.80;4.50;;;18.60;99.90;;;;;;5022244;28;20473;-55
2022/08/20 09:18:42;;;;;;;7.60;5.27;;;18.60;99.90;;;;;;5030498;28;20410;-57
2022/08/20 09:21:08;;;;;;;5.80;4.73;;;18.50;99.90;;;;;;5023733;28;20184;-56
2022/08/20 09:23:34;;;;;;;10.50;6.37;;;18.50;99.90;;;;;;5025144;28;20275;-59
2022/08/20 09:26:00;;;;;;;12.40;6.87;;;18.40;99.90;;;;;;5018425;28;20478;-60
2022/08/20 09:28:26;;;;;;;15.10;8.57;;;18.30;99.90;;;;;;5027253;28;20966;-60
2022/08/20 09:30:52;;;;;;;11.07;8.10;;;18.30;99.90;;;;;;5030460;28;20691;-59
2022/08/20 09:33:18;;;;;;;14.37;7.23;;;18.20;99.90;;;;;;5023708;28;20430;-60
2022/08/20 09:35:45;;;;;;;10.60;7.40;;;18.10;99.90;;;;;;5024790;28;20245;-60
2022/08/20 09:38:12;;;;;;;12.17;8.37;;;18.10;99.90;;;;;;5027434;28;20771;-59
2022/08/20 09:40:38;;;;;;;11.13;8.30;;;18.10;99.90;;;;;;5030123;28;20516;-60
2022/08/20 09:43:07;;;;;;;10.60;8.47;;;18.10;99.90;;;;;;5027361;28;20431;-57
2022/08/20 09:45:34;;;;;;;12.80;8.83;;;18.10;99.90;;;;;;5029055;28;20830;-58
2022/08/20 09:48:00;;;;;;;12.70;8.90;;;18.10;99.90;;;;;;5030057;28;20449;-57
2022/08/20 09:50:28;;;;;;;20.50;10.20;;;18.10;99.90;;;;;;5031434;28;20411;-58
2022/08/20 09:52:56;;;;;;;12.50;8.83;;;18.10;99.90;;;;;;5025251;28;20207;-58
2022/08/20 09:55:38;;;;;;;13.27;8.33;;;18.10;99.90;;;;;;5024725;28;20999;-58
2022/08/20 09:58:19;;;;;;;13.00;9.20;;;18.10;99.90;;;;;;5023540;28;20441;-57
2022/08/20 10:00:45;;;;;;;15.33;8.73;;;18.10;99.90;;;;;;5017545;28;20509;-57
2022/08/20 10:03:11;;;;;;;17.83;8.23;;;18.10;99.90;;;;;;5025137;28;20539;-58
2022/08/20 10:05:36;;;;;;;12.50;8.37;;;18.10;99.90;;;;;;5027765;28;20191;-58
2022/08/20 10:08:07;;;;;;;10.47;8.10;;;18.10;99.90;;;;;;5022543;28;20263;-57
2022/08/20 10:10:32;;;;;;;9.70;8.40;;;18.20;99.90;;;;;;5014658;28;20169;-58
2022/08/20 10:12:58;;;;;;;13.90;9.27;;;18.20;99.90;;;;;;5027155;28;20441;-57
2022/08/20 10:15:24;;;;;;;12.63;8.90;;;18.30;99.90;;;;;;5026769;28;20309;-58
2022/08/20 10:17:49;;;;;;;13.83;8.30;;;18.30;99.90;;;;;;5025461;28;20306;-57
2022/08/20 10:20:17;;;;;;;12.57;7.50;;;18.40;99.90;;;;;;5024161;28;20192;-62
2022/08/20 10:22:43;;;;;;;11.10;8.30;;;18.50;99.90;;;;;;5032027;28;20167;-62
2022/08/20 10:25:09;;;;;;;8.80;7.20;;;18.50;99.90;;;;;;5026286;28;20466;-61
2022/08/20 10:27:36;;;;;;;10.23;7.80;;;18.50;99.90;;;;;;5032500;28;20414;-63
2022/08/20 10:30:04;;;;;;;12.70;8.77;;;18.60;99.90;;;;;;5031569;28;20508;-63
2022/08/20 10:32:30;;;;;;;8.90;7.83;;;18.60;99.90;;;;;;5032569;28;21032;-63
2022/08/20 10:34:55;;;;;;;9.47;7.10;;;18.70;99.90;;;;;;5030338;28;20465;-61
2022/08/20 10:37:24;;;;;;;5.90;5.30;;;18.70;99.90;;;;;;5032255;28;20547;-61
2022/08/20 10:39:50;;;;;;;6.40;5.20;;;18.70;99.90;;;;;;5029361;28;20191;-62
2022/08/20 10:42:16;;;;;;;8.17;5.43;;;18.70;99.90;;;;;;5032336;28;21124;-62
2022/08/20 10:44:42;;;;;;;5.20;4.60;;;18.70;99.90;;;;;;5026567;28;20442;-62
2022/08/20 10:47:26;;;;;;;8.30;4.40;;;18.60;99.90;;;;;;5020808;28;20181;-63
2022/08/20 10:49:54;;;;;;;4.17;3.77;;;18.60;99.90;;;;;;5016938;28;20187;-62
2022/08/20 10:52:21;;;;;;;4.90;3.80;;;18.70;99.90;;;;;;5026490;28;20431;-62
2022/08/20 10:54:47;;;;;;;4.63;3.87;;;18.70;99.90;;;;;;5027364;28;20470;-54
2022/08/20 10:57:16;;;;;;;3.90;3.50;;;18.80;99.90;;;;;;5026683;28;20418;-56
2022/08/20 10:59:44;;;;;;;5.40;4.17;;;18.80;99.90;;;;;;5033062;28;20187;-55
2022/08/20 11:02:10;;;;;;;4.30;3.90;;;18.90;99.90;;;;;;5033889;28;20411;-55
2022/08/20 11:04:36;;;;;;;5.30;4.20;;;19.00;99.90;;;;;;5032839;28;21058;-53
2022/08/20 11:07:14;;;;;;;4.43;4.03;;;19.20;99.90;;;;;;5032583;28;20410;-55
2022/08/20 11:09:39;;;;;;;6.70;4.43;;;19.30;99.90;;;;;;5027856;28;20183;-55
2022/08/20 11:12:05;;;;;;;3.90;3.50;;;19.40;99.90;;;;;;5032293;28;20425;-55
2022/08/20 11:14:32;;;;;;;6.80;4.10;;;19.50;99.90;;;;;;5019918;28;20234;-55
2022/08/20 11:16:58;;;;;;;4.67;4.13;;;19.50;99.90;;;;;;5019281;28;20927;-56
2022/08/20 11:19:24;;;;;;;7.03;4.63;;;19.50;99.90;;;;;;5027980;28;20525;-57
2022/08/20 11:21:49;;;;;;;5.43;4.93;;;19.60;99.90;;;;;;5021616;28;20179;-58
2022/08/20 11:24:15;;;;;;;16.03;5.90;;;19.90;99.90;;;;;;5018334;28;20181;-57
2022/08/20 11:26:41;;;;;;;9.80;4.97;;;20.30;99.90;;;;;;5027744;28;20184;-57
2022/08/20 11:29:06;;;;;;;6.67;4.97;;;20.70;99.90;;;;;;5028944;28;20180;-58
2022/08/20 11:31:32;;;;;;;7.10;5.07;;;20.80;99.90;;;;;;5026451;28;20582;-58
2022/08/20 11:33:58;;;;;;;5.43;4.90;;;20.70;99.90;;;;;;5028355;28;20180;-56
2022/08/20 11:36:25;;;;;;;5.73;5.13;;;20.50;99.90;;;;;;5026479;28;20310;-58
2022/08/20 11:38:51;;;;;;;6.30;5.63;;;20.30;99.90;;;;;;5027417;28;20194;-58
2022/08/20 11:41:17;;;;;;;5.37;4.83;;;20.10;99.90;;;;;;5019138;28;20413;-56
2022/08/20 11:43:43;;;;;;;6.37;5.50;;;19.80;99.90;;;;;;5018530;28;20450;-56
2022/08/20 11:46:08;;;;;;;8.93;5.03;;;19.60;99.90;;;;;;5016720;28;20204;-59
2022/08/20 11:48:34;;;;;;;6.30;5.27;;;19.50;99.90;;;;;;5029812;28;20180;-60
2022/08/20 11:51:00;;;;;;;8.57;5.33;;;19.40;99.90;;;;;;5020810;28;20602;-62
2022/08/20 11:53:25;;;;;;;4.47;4.07;;;19.30;99.90;;;;;;5026129;28;20176;-62
2022/08/20 11:55:51;;;;;;;4.63;4.20;;;19.20;99.90;;;;;;5030911;28;20218;-57
2022/08/20 11:58:17;;;;;;;5.63;3.97;;;19.20;99.90;;;;;;5027744;28;20206;-63
2022/08/20 12:00:43;;;;;;;4.53;3.73;;;19.30;99.90;;;;;;5020892;28;20223;-62
2022/08/20 12:03:09;;;;;;;4.50;4.10;;;19.40;99.90;;;;;;5022140;28;20489;-62
2022/08/20 12:05:36;;;;;;;6.90;3.40;;;19.60;99.90;;;;;;5025935;28;20867;-62
2022/08/20 12:08:02;;;;;;;3.23;2.93;;;19.80;99.90;;;;;;5023164;28;20481;-62
2022/08/20 12:10:29;;;;;;;2.47;2.27;;;20.00;99.90;;;;;;5027923;28;20449;-62
2022/08/20 12:12:55;;;;;;;3.03;2.57;;;20.20;99.90;;;;;;5021264;28;20478;-62
2022/08/20 12:15:22;;;;;;;2.80;2.57;;;20.30;99.90;;;;;;5021118;28;20471;-63
2022/08/20 12:17:48;;;;;;;3.00;2.40;;;20.30;99.90;;;;;;5024656;28;20943;-64
2022/08/20 12:20:15;;;;;;;2.10;1.90;;;20.30;99.90;;;;;;5019406;28;20445;-61
2022/08/20 12:22:42;;;;;;;2.33;2.13;;;20.30;99.90;;;;;;5028056;28;20238;-63
2022/08/20 12:25:08;;;;;;;2.83;2.40;;;20.30;99.90;;;;;;5028018;28;20522;-63
2022/08/20 12:27:35;;;;;;;2.13;1.93;;;20.30;99.90;;;;;;5021115;28;20915;-63
2022/08/20 12:30:08;;;;;;;1.90;1.80;;;20.30;99.90;;;;;;5025289;28;20176;-63
2022/08/20 12:32:34;;;;;;;1.70;1.60;;;20.20;99.90;;;;;;5029002;28;20415;-65
2022/08/20 12:35:00;;;;;;;1.73;1.57;;;20.10;99.90;;;;;;5025739;28;20501;-63
2022/08/20 12:37:28;;;;;;;4.97;2.30;;;20.00;99.90;;;;;;5020875;28;20649;-64
2022/08/20 12:39:57;;;;;;;1.77;1.67;;;20.00;99.90;;;;;;5024042;28;20436;-65
2022/08/20 12:42:23;;;;;;;3.00;2.40;;;19.90;99.90;;;;;;5031738;28;21101;-65
2022/08/20 12:44:49;;;;;;;1.90;1.80;;;19.90;99.90;;;;;;5028090;28;20544;-66
2022/08/20 12:47:25;;;;;;;1.70;1.60;;;19.80;99.90;;;;;;5028590;28;20588;-66